Time;durP1;ratioP1;P1;durP2;ratioP2;P2;SDS_P1;SDS_P2;PMS_P1;PMS_P2;Temp;Humidity;BMP_temperature;BMP_pressure;BME280_temperature;BME280_humidity;BME280_pressure;Samples;Min_cycle;Max_cycle;Signal;HPM_P1;HPM_P2
2023/05/22 05:06:43;;;;;;;;;;;;;;;;;;5080161;28;19950;-49
2023/05/22 05:09:09;;;;;;;;;;;;;;;;;;5093047;28;19916;-48
2023/05/22 05:11:35;;;;;;;;;;;;;;;;;;5080081;28;19923;-49
2023/05/22 05:14:01;;;;;;;;;;;;;;;;;;5066975;28;20280;-46
2023/05/22 05:16:27;;;;;;;;;;;;;;;;;;5067445;28;19912;-46
2023/05/22 05:18:54;;;;;;;;;;;;;;;;;;5067145;28;19962;-49
2023/05/22 05:21:20;;;;;;;;;;;;;;;;;;5066184;28;19928;-49
2023/05/22 05:23:46;;;;;;;;;;;;;;;;;;5067280;28;20395;-50
2023/05/22 05:26:12;;;;;;;;;;;;;;;;;;5067098;28;20019;-49
2023/05/22 05:28:37;;;;;;;;;;;;;;;;;;5067066;28;19919;-50
2023/05/22 05:31:03;;;;;;;;;;;;;;;;;;5066365;28;19919;-48
2023/05/22 05:33:29;;;;;;;;;;;;;;;;;;5067529;28;19973;-47
2023/05/22 05:35:55;;;;;;;;;;;;;;;;;;5067173;28;19913;-47
2023/05/22 05:38:22;;;;;;;;;;;;;;;;;;5067024;28;19916;-46
2023/05/22 05:40:48;;;;;;;;;;;;;;;;;;5067115;28;19923;-50
2023/05/22 05:43:14;;;;;;;;;;;;;;;;;;5049998;28;19921;-49
2023/05/22 05:45:40;;;;;;;;;;;;;;;;;;5060070;28;19912;-47
2023/05/22 05:48:06;;;;;;;;;;;;;;;;;;5068288;28;19908;-45
2023/05/22 05:50:32;;;;;;;;;;;;;;;;;;5081803;28;19931;-47
2023/05/22 05:52:58;;;;;;;;;;;;;;;;;;5088071;28;19969;-48
2023/05/22 05:55:24;;;;;;;;;;;;;;;;;;5090038;28;19919;-47
2023/05/22 05:57:51;;;;;;;;;;;;;;;;;;5071058;28;19919;-48
2023/05/22 06:00:17;;;;;;;;;;;;;;;;;;5086367;28;19934;-47
2023/05/22 06:02:44;;;;;;;;;;;;;;;;;;5079151;28;19908;-48
2023/05/22 06:05:10;;;;;;;;;;;;;;;;;;5071822;28;19909;-46
2023/05/22 06:07:36;;;;;;;;;;;;;;;;;;5070861;28;19923;-49
2023/05/22 06:10:03;;;;;;;;;;;;;;;;;;5091490;28;20161;-47
2023/05/22 06:12:28;;;;;;;;;;;;;;;;;;5092257;28;19912;-50
2023/05/22 06:14:55;;;;;;;;;;;;;;;;;;5104810;28;19922;-46
2023/05/22 06:17:21;;;;;;;;;;;;;;;;;;5095707;28;20276;-49
2023/05/22 06:19:47;;;;;;;;;;;;;;;;;;5071805;28;19920;-48
2023/05/22 06:22:13;;;;;;;;;;;;;;;;;;5071452;28;19982;-50
2023/05/22 06:24:39;;;;;;;;;;;;;;;;;;5072685;28;19916;-48
2023/05/22 06:27:06;;;;;;;;;;;;;;;;;;5086554;28;19920;-47
2023/05/22 06:29:32;;;;;;;;;;;;;;;;;;5091857;28;20435;-50
2023/05/22 06:31:58;;;;;;;;;;;;;;;;;;5081819;28;19924;-47
2023/05/22 06:34:24;;;;;;;;;;;;;;;;;;5083071;28;19916;-47
2023/05/22 06:36:50;;;;;;;;;;;;;;;;;;5088812;28;20115;-47
2023/05/22 06:39:16;;;;;;;;;;;;;;;;;;5080045;28;20309;-49
2023/05/22 06:41:42;;;;;;;;;;;;;;;;;;5091782;28;19915;-50
2023/05/22 06:44:09;;;;;;;;;;;;;;;;;;5085606;28;20034;-48
2023/05/22 06:46:35;;;;;;;;;;;;;;;;;;5080593;28;21694;-48
2023/05/22 06:49:01;;;;;;;;;;;;;;;;;;5090562;28;19916;-46
2023/05/22 06:51:28;;;;;;;;;;;;;;;;;;5088653;28;19911;-48
2023/05/22 06:53:55;;;;;;;;;;;;;;;;;;5074192;28;20011;-49
2023/05/22 06:56:21;;;;;;;;;;;;;;;;;;5089498;28;19916;-48
2023/05/22 06:58:47;;;;;;;;;;;;;;;;;;5094317;28;20448;-49
2023/05/22 07:01:14;;;;;;;;;;;;;;;;;;5090967;28;19908;-47
2023/05/22 07:03:40;;;;;;;;;;;;;;;;;;5089402;28;19912;-49
2023/05/22 07:06:06;;;;;;;;;;;;;;;;;;5086537;28;20003;-47
2023/05/22 07:08:32;;;;;;;;;;;;;;;;;;5083177;28;20387;-48
2023/05/22 07:11:00;;;;;;;;;;;;;;;;;;5071744;28;19947;-50
2023/05/22 07:13:27;;;;;;;;;;;;;;;;;;5069495;28;19954;-48
2023/05/22 07:18:30;;;;;;;;;;;;;;;;;;5270361;22;19932;-40
2023/05/22 07:20:56;;;;;;;;;;;;;;;;;;5086880;28;19916;-40
2023/05/22 07:23:21;;;;;;;;;;;;;;;;;;5088409;28;19995;-40
2023/05/22 07:25:47;;;;;;;;;;;;;;;;;;5087148;28;20408;-40
2023/05/22 07:28:14;;;;;;;;;;;;;;;;;;5085640;28;19920;-40
2023/05/22 07:30:40;;;;;;;;;;;;;;;;;;5068352;28;19909;-40
2023/05/22 07:33:06;;;;;;;;;;;;;;;;;;5070478;28;19943;-40
2023/05/22 07:35:32;;;;;;;;;;;;;;;;;;5082465;28;20437;-40
2023/05/22 07:37:58;;;;;;;;;;;;;;;;;;5089069;28;20578;-40
2023/05/22 07:40:24;;;;;;;;;;;;;;;;;;5088148;28;19923;-40
2023/05/22 07:42:50;;;;;;;;;;;;;;;;;;5087836;28;20061;-40
2023/05/22 07:45:16;;;;;;;;;;;;;;;;;;5090176;28;20328;-40
2023/05/22 07:47:42;;;;;;;;;;;;;;;;;;5088129;28;19920;-40
2023/05/22 07:50:09;;;;;;;;;;;;;;;;;;5086979;28;19965;-40
2023/05/22 07:52:35;;;;;;;;;;;;;;;;;;5076763;28;20398;-40
2023/05/22 07:55:01;;;;;;;;;;;;;;;;;;5089305;28;19996;-40
2023/05/22 07:57:28;;;;;;;;;;;;;;;;;;5085696;28;19912;-40
2023/05/22 07:59:54;;;;;;;;;;;;;;;;;;5080143;28;20715;-40
2023/05/22 08:02:21;;;;;;;;;;;;;;;;;;5074533;28;19916;-40
2023/05/22 08:04:47;;;;;;;;;;;;;;;;;;5071755;28;19920;-40
2023/05/22 08:07:13;;;;;;;;;;;;;;;;;;5086253;28;19923;-40
2023/05/22 08:09:39;;;;;;;;;;;;;;;;;;5088395;28;19942;-40
2023/05/22 08:12:05;;;;;;;;;;;;;;;;;;5076424;28;19935;-40
2023/05/22 08:14:31;;;;;;;;;;;;;;;;;;5088908;28;20386;-40
2023/05/22 08:16:57;;;;;;;;;;;;;;;;;;5078982;28;19912;-40
2023/05/22 08:19:23;;;;;;;;;;;;;;;;;;5068605;28;20346;-40
2023/05/22 08:21:51;;;;;;;;;;;;;;;;;;5068675;28;19948;-40
2023/05/22 08:24:17;;;;;;;;;;;;;;;;;;5068739;28;19909;-41
2023/05/22 08:26:43;;;;;;;;;;;;;;;;;;5068897;28;19935;-40
2023/05/22 08:29:10;;;;;;;;;;;;;;;;;;5086902;28;19920;-40
2023/05/22 08:31:36;;;;;;;;;;;;;;;;;;5086719;28;20343;-40
2023/05/22 08:34:03;;;;;;;;;;;;;;;;;;5088049;28;20390;-40
2023/05/22 08:36:30;;;;;;;;;;;;;;;;;;5087862;28;19938;-40
2023/05/22 08:38:56;;;;;;;;;;;;;;;;;;5087438;28;19912;-40
2023/05/22 08:41:22;;;;;;;;;;;;;;;;;;5086364;28;19977;-40
2023/05/22 08:43:48;;;;;;;;;;;;;;;;;;5087727;28;19912;-41
2023/05/22 08:46:15;;;;;;;;;;;;;;;;;;5086486;28;19967;-40
2023/05/22 08:48:43;;;;;;;;;;;;;;;;;;5086049;28;20213;-40
2023/05/22 08:51:09;;;;;;;;;;;;;;;;;;5087584;28;19943;-41
2023/05/22 08:53:35;;;;;;;;;;;;;;;;;;5080051;28;20309;-40
2023/05/22 08:56:01;;;;;;;;;;;;;;;;;;5076199;28;19940;-40
2023/05/22 08:58:27;;;;;;;;;;;;;;;;;;5069941;28;19909;-40
2023/05/22 09:00:53;;;;;;;;;;;;;;;;;;5087456;28;19912;-40
2023/05/22 09:03:20;;;;;;;;;;;;;;;;;;5087274;28;19916;-40
2023/05/22 09:05:46;;;;;;;;;;;;;;;;;;5085413;28;20306;-40
2023/05/22 09:08:12;;;;;;;;;;;;;;;;;;5085448;28;19912;-40
2023/05/22 09:10:38;;;;;;;;;;;;;;;;;;5083573;28;20363;-40
2023/05/22 09:13:04;;;;;;;;;;;;;;;;;;5081807;28;19988;-40
2023/05/22 09:15:30;;;;;;;;;;;;;;;;;;5081307;28;19922;-40
2023/05/22 09:17:56;;;;;;;;;;;;;;;;;;5076251;28;19942;-40
2023/05/22 09:20:22;;;;;;;;;;;;;;;;;;5076992;28;19952;-40
2023/05/22 09:22:48;;;;;;;;;;;;;;;;;;5081916;28;19909;-40
2023/05/22 09:25:14;;;;;;;;;;;;;;;;;;5075778;28;19985;-40
2023/05/22 09:27:40;;;;;;;;;;;;;;;;;;5081970;28;20007;-40
2023/05/22 09:30:06;;;;;;;;;;;;;;;;;;5080503;28;20361;-40
2023/05/22 09:32:31;;;;;;;;;;;;;;;;;;5091007;28;19912;-40
2023/05/22 09:34:57;;;;;;;;;;;;;;;;;;5081396;28;20371;-40
2023/05/22 09:37:23;;;;;;;;;;;;;;;;;;5083062;28;19908;-40
2023/05/22 09:39:51;;;;;;;;;;;;;;;;;;5090890;28;20500;-40
2023/05/22 09:42:17;;;;;;;;;;;;;;;;;;5071442;28;19952;-40
2023/05/22 09:44:43;;;;;;;;;;;;;;;;;;5075602;28;20362;-40
2023/05/22 09:47:10;;;;;;;;;;;;;;;;;;5086529;28;20389;-41
2023/05/22 09:49:36;;;;;;;;;;;;;;;;;;5090839;28;19916;-41
2023/05/22 09:52:02;;;;;;;;;;;;;;;;;;5091769;28;20414;-41
2023/05/22 09:54:28;;;;;;;;;;;;;;;;;;5092646;28;19946;-41
2023/05/22 09:56:54;;;;;;;;;;;;;;;;;;5091799;28;19908;-41
2023/05/22 09:59:25;;;;;;;;;;;;;;;;;;5089297;28;20648;-41
2023/05/22 10:01:51;;;;;;;;;;;;;;;;;;5091216;28;20205;-40
2023/05/22 10:04:17;;;;;;;;;;;;;;;;;;5090987;28;20382;-41
2023/05/22 10:06:43;;;;;;;;;;;;;;;;;;5091409;28;20462;-41
2023/05/22 10:09:09;;;;;;;;;;;;;;;;;;5088942;28;19916;-40
2023/05/22 10:11:35;;;;;;;;;;;;;;;;;;5082302;28;19916;-40
2023/05/22 10:14:01;;;;;;;;;;;;;;;;;;5091214;28;20202;-40
2023/05/22 10:16:27;;;;;;;;;;;;;;;;;;5091909;28;20065;-40
2023/05/22 10:18:54;;;;;;;;;;;;;;;;;;5090415;28;19916;-41
2023/05/22 10:21:20;;;;;;;;;;;;;;;;;;5086567;28;19916;-41
2023/05/22 10:23:45;;;;;;;;;;;;;;;;;;5089860;28;19923;-40
2023/05/22 10:26:11;;;;;;;;;;;;;;;;;;5090011;28;19923;-40
2023/05/22 10:28:38;;;;;;;;;;;;;;;;;;5090332;28;19908;-41
2023/05/22 10:31:04;;;;;;;;;;;;;;;;;;5085894;28;19912;-41
2023/05/22 10:33:30;;;;;;;;;;;;;;;;;;5087256;28;19977;-41
2023/05/22 10:35:56;;;;;;;;;;;;;;;;;;5052492;28;20528;-41
2023/05/22 10:38:21;;;;;;;;;;;;;;;;;;5069993;28;19913;-42
2023/05/22 10:40:47;;;;;;;;;;;;;;;;;;5071973;28;20054;-41
2023/05/22 10:43:13;;;;;;;;;;;;;;;;;;5086504;28;19982;-40
2023/05/22 10:45:40;;;;;;;;;;;;;;;;;;5089665;28;19919;-41
2023/05/22 10:48:06;;;;;;;;;;;;;;;;;;5089894;28;20309;-40
2023/05/22 10:50:32;;;;;;;;;;;;;;;;;;5089161;28;19912;-41
2023/05/22 10:52:58;;;;;;;;;;;;;;;;;;5090557;28;19912;-41
2023/05/22 10:55:24;;;;;;;;;;;;;;;;;;5087341;28;19912;-41
2023/05/22 10:57:50;;;;;;;;;;;;;;;;;;5077980;28;19912;-42
2023/05/22 11:00:18;;;;;;;;;;;;;;;;;;5089171;28;20545;-41
2023/05/22 11:02:44;;;;;;;;;;;;;;;;;;5086146;28;20333;-42
2023/05/22 11:05:09;;;;;;;;;;;;;;;;;;5090232;28;20007;-44
2023/05/22 11:07:35;;;;;;;;;;;;;;;;;;5086720;28;20001;-42
2023/05/22 11:10:02;;;;;;;;;;;;;;;;;;5088382;28;20006;-43
2023/05/22 11:12:29;;;;;;;;;;;;;;;;;;5075927;28;19913;-43
2023/05/22 11:14:55;;;;;;;;;;;;;;;;;;5070346;28;19955;-43
2023/05/22 11:17:22;;;;;;;;;;;;;;;;;;5066553;28;20500;-43
2023/05/22 11:19:47;;;;;;;;;;;;;;;;;;5067798;28;19966;-45
2023/05/22 11:22:14;;;;;;;;;;;;;;;;;;5050072;28;19909;-42
2023/05/22 11:24:40;;;;;;;;;;;;;;;;;;5070146;28;19916;-43
2023/05/22 11:27:06;;;;;;;;;;;;;;;;;;5068727;28;20361;-44
2023/05/22 11:29:32;;;;;;;;;;;;;;;;;;5086495;28;20022;-44
2023/05/22 11:31:58;;;;;;;;;;;;;;;;;;5069413;28;19969;-44
2023/05/22 11:34:23;;;;;;;;;;;;;;;;;;5087948;28;19957;-42
2023/05/22 11:36:49;;;;;;;;;;;;;;;;;;5087956;28;19912;-42
2023/05/22 11:39:15;;;;;;;;;;;;;;;;;;5086462;28;19955;-42
2023/05/22 11:41:41;;;;;;;;;;;;;;;;;;5088037;28;19923;-45
2023/05/22 11:44:07;;;;;;;;;;;;;;;;;;5087644;28;19920;-43
2023/05/22 11:46:33;;;;;;;;;;;;;;;;;;5076971;28;19920;-43
2023/05/22 11:48:59;;;;;;;;;;;;;;;;;;5084577;28;19971;-43
2023/05/22 11:51:25;;;;;;;;;;;;;;;;;;5087109;28;19916;-43
2023/05/22 11:53:51;;;;;;;;;;;;;;;;;;5086365;28;20326;-42
2023/05/22 11:56:17;;;;;;;;;;;;;;;;;;5087448;28;19909;-42
2023/05/22 11:58:43;;;;;;;;;;;;;;;;;;5085265;28;19966;-43
2023/05/22 12:01:09;;;;;;;;;;;;;;;;;;5083743;28;19917;-43
2023/05/22 12:03:35;;;;;;;;;;;;;;;;;;5068042;28;19919;-42
2023/05/22 12:06:01;;;;;;;;;;;;;;;;;;5087606;28;20007;-42
2023/05/22 12:08:27;;;;;;;;;;;;;;;;;;5085182;28;19919;-42
2023/05/22 12:10:53;;;;;;;;;;;;;;;;;;5078294;28;19912;-43
2023/05/22 12:13:19;;;;;;;;;;;;;;;;;;5081544;28;19951;-43
2023/05/22 12:15:45;;;;;;;;;;;;;;;;;;5071380;28;19908;-42
2023/05/22 12:18:11;;;;;;;;;;;;;;;;;;5086401;28;19924;-42
2023/05/22 12:20:37;;;;;;;;;;;;;;;;;;5086160;28;19916;-42
2023/05/22 12:23:03;;;;;;;;;;;;;;;;;;5086153;28;19919;-42
2023/05/22 12:25:29;;;;;;;;;;;;;;;;;;5086683;28;19978;-43
2023/05/22 12:27:55;;;;;;;;;;;;;;;;;;5082958;28;19916;-42
2023/05/22 12:30:21;;;;;;;;;;;;;;;;;;5084069;28;19947;-42
2023/05/22 12:32:47;;;;;;;;;;;;;;;;;;5085027;28;19938;-42
2023/05/22 12:35:13;;;;;;;;;;;;;;;;;;5085290;28;19912;-42
2023/05/22 12:37:39;;;;;;;;;;;;;;;;;;5085667;28;19913;-43
2023/05/22 12:40:05;;;;;;;;;;;;;;;;;;5085625;28;19919;-43
2023/05/22 12:42:31;;;;;;;;;;;;;;;;;;5087209;28;20438;-42
2023/05/22 12:44:59;;;;;;;;;;;;;;;;;;5085156;28;19998;-43
2023/05/22 12:47:25;;;;;;;;;;;;;;;;;;5081427;28;20269;-43
2023/05/22 12:49:51;;;;;;;;;;;;;;;;;;5084938;28;20023;-43
2023/05/22 12:52:18;;;;;;;;;;;;;;;;;;5081596;28;19916;-43
2023/05/22 12:54:44;;;;;;;;;;;;;;;;;;5080655;28;19939;-43
2023/05/22 12:57:10;;;;;;;;;;;;;;;;;;5082152;28;19944;-42
2023/05/22 12:59:36;;;;;;;;;;;;;;;;;;5082331;28;19978;-42
2023/05/22 13:02:02;;;;;;;;;;;;;;;;;;5084103;28;19989;-43
2023/05/22 13:04:28;;;;;;;;;;;;;;;;;;5083655;28;20494;-43
2023/05/22 13:06:54;;;;;;;;;;;;;;;;;;5083124;28;20034;-43
2023/05/22 13:09:20;;;;;;;;;;;;;;;;;;5083006;28;20575;-44
2023/05/22 13:11:47;;;;;;;;;;;;;;;;;;5083934;28;19916;-43
2023/05/22 13:14:13;;;;;;;;;;;;;;;;;;5058622;28;19915;-43
2023/05/22 13:16:39;;;;;;;;;;;;;;;;;;5065122;28;19912;-44
2023/05/22 13:19:05;;;;;;;;;;;;;;;;;;5082703;28;20316;-42
2023/05/22 13:21:31;;;;;;;;;;;;;;;;;;5086230;28;19912;-42
2023/05/22 13:23:57;;;;;;;;;;;;;;;;;;5085958;28;19912;-42
2023/05/22 13:26:23;;;;;;;;;;;;;;;;;;5086525;28;19934;-43
2023/05/22 13:28:49;;;;;;;;;;;;;;;;;;5072013;28;19970;-43
2023/05/22 13:31:15;;;;;;;;;;;;;;;;;;5076455;28;20004;-42
2023/05/22 13:33:41;;;;;;;;;;;;;;;;;;5087091;28;20147;-42
2023/05/22 13:36:07;;;;;;;;;;;;;;;;;;5087142;28;20010;-42
2023/05/22 13:38:33;;;;;;;;;;;;;;;;;;5085897;28;19919;-43
2023/05/22 13:40:59;;;;;;;;;;;;;;;;;;5087145;28;19922;-43
2023/05/22 13:43:25;;;;;;;;;;;;;;;;;;5087006;28;19908;-44
2023/05/22 13:45:51;;;;;;;;;;;;;;;;;;5084814;28;19919;-44
2023/05/22 13:48:17;;;;;;;;;;;;;;;;;;5069052;28;19918;-43
2023/05/22 13:50:43;;;;;;;;;;;;;;;;;;5086914;28;19909;-44
2023/05/22 13:53:09;;;;;;;;;;;;;;;;;;5086671;28;21679;-44
2023/05/22 13:55:35;;;;;;;;;;;;;;;;;;5085304;28;19912;-43
2023/05/22 13:58:01;;;;;;;;;;;;;;;;;;5086264;28;19912;-43
2023/05/22 14:00:27;;;;;;;;;;;;;;;;;;5085994;28;19916;-44
2023/05/22 14:02:53;;;;;;;;;;;;;;;;;;5087042;28;20338;-44
2023/05/22 14:05:19;;;;;;;;;;;;;;;;;;5087079;28;19973;-43
2023/05/22 14:07:45;;;;;;;;;;;;;;;;;;5086872;28;20394;-45
2023/05/22 14:10:11;;;;;;;;;;;;;;;;;;5086269;28;19961;-43
2023/05/22 14:12:37;;;;;;;;;;;;;;;;;;5085701;28;19916;-44
2023/05/22 14:15:02;;;;;;;;;;;;;;;;;;5075223;28;19916;-44
2023/05/22 14:17:28;;;;;;;;;;;;;;;;;;5089626;28;19916;-44
2023/05/22 14:19:54;;;;;;;;;;;;;;;;;;5087804;28;19912;-42
2023/05/22 14:22:20;;;;;;;;;;;;;;;;;;5087408;28;19927;-44
2023/05/22 14:24:46;;;;;;;;;;;;;;;;;;5090056;28;19908;-43
2023/05/22 14:27:12;;;;;;;;;;;;;;;;;;5089432;28;20027;-40
2023/05/22 14:29:38;;;;;;;;;;;;;;;;;;5077846;28;19909;-40
2023/05/22 14:32:04;;;;;;;;;;;;;;;;;;5077497;28;19912;-39
2023/05/22 14:34:30;;;;;;;;;;;;;;;;;;5087965;28;19920;-42
2023/05/22 14:36:57;;;;;;;;;;;;;;;;;;5089804;28;19936;-41
2023/05/22 14:39:23;;;;;;;;;;;;;;;;;;5087633;28;20378;-42
2023/05/22 14:41:49;;;;;;;;;;;;;;;;;;5090297;28;19924;-40
2023/05/22 14:44:15;;;;;;;;;;;;;;;;;;5077977;28;19908;-40
2023/05/22 14:46:42;;;;;;;;;;;;;;;;;;5070683;28;19943;-41
2023/05/22 14:49:08;;;;;;;;;;;;;;;;;;5087171;28;19968;-39
2023/05/22 14:51:34;;;;;;;;;;;;;;;;;;5089268;28;19916;-40
2023/05/22 14:54:00;;;;;;;;;;;;;;;;;;5089813;28;19909;-40
2023/05/22 14:56:27;;;;;;;;;;;;;;;;;;5083341;28;19966;-39
2023/05/22 14:58:53;;;;;;;;;;;;;;;;;;5088188;28;19912;-40
2023/05/22 15:01:19;;;;;;;;;;;;;;;;;;5076029;28;20031;-40
2023/05/22 15:03:46;;;;;;;;;;;;;;;;;;5085682;28;19915;-40
2023/05/22 15:06:13;;;;;;;;;;;;;;;;;;5088499;28;20305;-40
2023/05/22 15:08:39;;;;;;;;;;;;;;;;;;5081122;28;19940;-39
2023/05/22 15:11:04;;;;;;;;;;;;;;;;;;5089151;28;19973;-40
2023/05/22 15:13:30;;;;;;;;;;;;;;;;;;5089117;28;20007;-39
2023/05/22 15:15:57;;;;;;;;;;;;;;;;;;5072088;28;19932;-39
2023/05/22 15:18:25;;;;;;;;;;;;;;;;;;5068618;28;19917;-40
2023/05/22 15:20:51;;;;;;;;;;;;;;;;;;5068877;28;20331;-39
2023/05/22 15:23:17;;;;;;;;;;;;;;;;;;5071448;28;19920;-40
2023/05/22 15:25:43;;;;;;;;;;;;;;;;;;5088927;28;19915;-39
2023/05/22 15:28:09;;;;;;;;;;;;;;;;;;5087335;28;20402;-39
2023/05/22 15:30:37;;;;;;;;;;;;;;;;;;5087491;28;19998;-39
2023/05/22 15:33:03;;;;;;;;;;;;;;;;;;5088081;28;20270;-40
2023/05/22 15:35:32;;;;;;;;;;;;;;;;;;5087459;28;19966;-41
2023/05/22 15:37:58;;;;;;;;;;;;;;;;;;5087408;28;19916;-39
2023/05/22 15:40:24;;;;;;;;;;;;;;;;;;5087244;28;19915;-39
2023/05/22 15:42:50;;;;;;;;;;;;;;;;;;5087680;28;19908;-41
2023/05/22 15:45:15;;;;;;;;;;;;;;;;;;5087015;28;19954;-39
2023/05/22 15:47:41;;;;;;;;;;;;;;;;;;5087623;28;20293;-40
2023/05/22 15:50:07;;;;;;;;;;;;;;;;;;5087717;28;19934;-39
2023/05/22 15:52:33;;;;;;;;;;;;;;;;;;5086966;28;20004;-40
2023/05/22 15:54:59;;;;;;;;;;;;;;;;;;5087319;28;19908;-40
2023/05/22 15:57:27;;;;;;;;;;;;;;;;;;5086854;28;19955;-40
2023/05/22 15:59:53;;;;;;;;;;;;;;;;;;5086873;28;19912;-40
2023/05/22 16:02:19;;;;;;;;;;;;;;;;;;5086761;28;19919;-39
2023/05/22 16:04:45;;;;;;;;;;;;;;;;;;5086811;28;19904;-39
2023/05/22 16:07:11;;;;;;;;;;;;;;;;;;5087369;28;20003;-39
2023/05/22 16:09:36;;;;;;;;;;;;;;;;;;5086722;28;19908;-40
2023/05/22 16:12:02;;;;;;;;;;;;;;;;;;5087078;28;19966;-40
2023/05/22 16:14:28;;;;;;;;;;;;;;;;;;5086422;28;19912;-39
2023/05/22 16:16:54;;;;;;;;;;;;;;;;;;5086603;28;20006;-40
2023/05/22 16:19:20;;;;;;;;;;;;;;;;;;5086695;28;19912;-42
2023/05/22 16:21:46;;;;;;;;;;;;;;;;;;5086624;28;19952;-39
2023/05/22 16:24:12;;;;;;;;;;;;;;;;;;5086138;28;19915;-39
2023/05/22 16:26:38;;;;;;;;;;;;;;;;;;5085871;28;19924;-39
2023/05/22 16:29:04;;;;;;;;;;;;;;;;;;5087803;28;19912;-39
2023/05/22 16:31:34;;;;;;;;;;;;;;;;;;5087662;28;20562;-39
2023/05/22 16:34:00;;;;;;;;;;;;;;;;;;5088029;28;19915;-39
2023/05/22 16:36:25;;;;;;;;;;;;;;;;;;5087621;28;19904;-40
2023/05/22 16:38:51;;;;;;;;;;;;;;;;;;5085279;28;19916;-39
2023/05/22 16:41:17;;;;;;;;;;;;;;;;;;5086404;28;19943;-39
2023/05/22 16:43:43;;;;;;;;;;;;;;;;;;5085512;28;19920;-39
2023/05/22 16:46:10;;;;;;;;;;;;;;;;;;5068837;28;19955;-39
2023/05/22 16:48:37;;;;;;;;;;;;;;;;;;5069498;28;19958;-39
2023/05/22 16:51:02;;;;;;;;;;;;;;;;;;5086175;28;19913;-40
2023/05/22 16:53:29;;;;;;;;;;;;;;;;;;5085801;28;19965;-40
2023/05/22 16:55:55;;;;;;;;;;;;;;;;;;5085806;28;20306;-39
2023/05/22 16:58:21;;;;;;;;;;;;;;;;;;5083353;28;19920;-41
2023/05/22 17:00:47;;;;;;;;;;;;;;;;;;5074424;28;19913;-42
2023/05/22 17:03:13;;;;;;;;;;;;;;;;;;5083468;28;20406;-42
2023/05/22 17:05:39;;;;;;;;;;;;;;;;;;5085058;28;19966;-44
2023/05/22 17:08:05;;;;;;;;;;;;;;;;;;5083872;28;20408;-42
2023/05/22 17:10:31;;;;;;;;;;;;;;;;;;5065613;28;20464;-42
2023/05/22 17:12:57;;;;;;;;;;;;;;;;;;5084422;28;19962;-42
2023/05/22 17:15:23;;;;;;;;;;;;;;;;;;5083908;28;20413;-42
2023/05/22 17:17:49;;;;;;;;;;;;;;;;;;5084344;28;19924;-41
2023/05/22 17:20:15;;;;;;;;;;;;;;;;;;5084043;28;20386;-41
2023/05/22 17:22:41;;;;;;;;;;;;;;;;;;5083230;28;19959;-42
2023/05/22 17:25:07;;;;;;;;;;;;;;;;;;5082573;28;19943;-42
2023/05/22 17:27:33;;;;;;;;;;;;;;;;;;5084118;28;19917;-42
2023/05/22 17:29:59;;;;;;;;;;;;;;;;;;5065278;28;19916;-42
2023/05/22 17:32:25;;;;;;;;;;;;;;;;;;5083914;28;19934;-42
2023/05/22 17:34:51;;;;;;;;;;;;;;;;;;5084349;28;20411;-42
2023/05/22 17:37:18;;;;;;;;;;;;;;;;;;5065293;28;19912;-43
2023/05/22 17:39:44;;;;;;;;;;;;;;;;;;5065849;28;19962;-42
2023/05/22 17:42:10;;;;;;;;;;;;;;;;;;5066269;28;19958;-41
2023/05/22 17:44:35;;;;;;;;;;;;;;;;;;5065998;28;20193;-43
2023/05/22 17:47:01;;;;;;;;;;;;;;;;;;5065205;28;19952;-42
2023/05/22 17:49:28;;;;;;;;;;;;;;;;;;5083257;28;19934;-42
2023/05/22 17:51:54;;;;;;;;;;;;;;;;;;5085945;28;20398;-42
2023/05/22 17:54:20;;;;;;;;;;;;;;;;;;5069266;28;19958;-45
2023/05/22 17:56:46;;;;;;;;;;;;;;;;;;5087725;28;19934;-44
2023/05/22 17:59:12;;;;;;;;;;;;;;;;;;5087555;28;19928;-42
2023/05/22 18:01:38;;;;;;;;;;;;;;;;;;5088211;28;19912;-43
2023/05/22 18:04:04;;;;;;;;;;;;;;;;;;5086416;28;20000;-42
2023/05/22 18:06:30;;;;;;;;;;;;;;;;;;5087192;28;19924;-42
2023/05/22 18:08:56;;;;;;;;;;;;;;;;;;5087657;28;20354;-42
2023/05/22 18:11:21;;;;;;;;;;;;;;;;;;5086479;28;19965;-41
2023/05/22 18:13:48;;;;;;;;;;;;;;;;;;5086252;28;20360;-41
2023/05/22 18:16:13;;;;;;;;;;;;;;;;;;5059100;28;20357;-41
2023/05/22 18:18:39;;;;;;;;;;;;;;;;;;5068285;28;19924;-44
2023/05/22 18:21:05;;;;;;;;;;;;;;;;;;5085124;28;19920;-41
2023/05/22 18:23:31;;;;;;;;;;;;;;;;;;5086244;28;20256;-41
2023/05/22 18:25:57;;;;;;;;;;;;;;;;;;5085631;28;19916;-42
2023/05/22 18:28:25;;;;;;;;;;;;;;;;;;5086819;28;19961;-41
2023/05/22 18:30:51;;;;;;;;;;;;;;;;;;5081350;28;19920;-41
2023/05/22 18:33:17;;;;;;;;;;;;;;;;;;5087361;28;20433;-41
2023/05/22 18:35:43;;;;;;;;;;;;;;;;;;5088417;28;19912;-42
2023/05/22 18:38:09;;;;;;;;;;;;;;;;;;5087194;28;19920;-40
2023/05/22 18:40:34;;;;;;;;;;;;;;;;;;5078902;28;19955;-40
2023/05/22 18:43:00;;;;;;;;;;;;;;;;;;5088968;28;19916;-40
2023/05/22 18:45:26;;;;;;;;;;;;;;;;;;5088406;28;19912;-40
2023/05/22 18:47:52;;;;;;;;;;;;;;;;;;5088687;28;19916;-40
2023/05/22 18:50:18;;;;;;;;;;;;;;;;;;5088426;28;20061;-40
2023/05/22 18:52:44;;;;;;;;;;;;;;;;;;5088574;28;20426;-40
2023/05/22 18:55:11;;;;;;;;;;;;;;;;;;5086559;28;19993;-40
2023/05/22 18:57:37;;;;;;;;;;;;;;;;;;5089151;28;19912;-40
2023/05/22 19:00:03;;;;;;;;;;;;;;;;;;5088730;28;19920;-41
2023/05/22 19:02:29;;;;;;;;;;;;;;;;;;5068594;28;19912;-40
2023/05/22 19:04:55;;;;;;;;;;;;;;;;;;5087857;28;19916;-41
2023/05/22 19:07:21;;;;;;;;;;;;;;;;;;5080686;28;19931;-40
2023/05/22 19:09:48;;;;;;;;;;;;;;;;;;5086277;28;19912;-41
2023/05/22 19:12:14;;;;;;;;;;;;;;;;;;5063156;28;19954;-41
2023/05/22 19:14:40;;;;;;;;;;;;;;;;;;5070202;28;20335;-40
2023/05/22 19:17:06;;;;;;;;;;;;;;;;;;5085264;28;19999;-40
2023/05/22 19:19:32;;;;;;;;;;;;;;;;;;5088070;28;20387;-40
2023/05/22 19:21:58;;;;;;;;;;;;;;;;;;5084619;28;19916;-41
2023/05/22 19:24:24;;;;;;;;;;;;;;;;;;5087288;28;19986;-41
2023/05/22 19:26:50;;;;;;;;;;;;;;;;;;5086329;28;19924;-40
2023/05/22 19:29:16;;;;;;;;;;;;;;;;;;5085836;28;19912;-40
2023/05/22 19:31:42;;;;;;;;;;;;;;;;;;5088367;28;20034;-40
2023/05/22 19:34:09;;;;;;;;;;;;;;;;;;5088044;28;19918;-40
2023/05/22 19:36:35;;;;;;;;;;;;;;;;;;5078435;28;20031;-41
2023/05/22 19:39:01;;;;;;;;;;;;;;;;;;5087450;28;19963;-40
2023/05/22 19:41:27;;;;;;;;;;;;;;;;;;5087055;28;20362;-40
2023/05/22 19:43:52;;;;;;;;;;;;;;;;;;5086521;28;20003;-40
2023/05/22 19:46:18;;;;;;;;;;;;;;;;;;5057292;28;19919;-40
2023/05/22 19:48:44;;;;;;;;;;;;;;;;;;5075100;28;19994;-40
2023/05/22 19:51:10;;;;;;;;;;;;;;;;;;5086994;28;19927;-40
2023/05/22 19:53:36;;;;;;;;;;;;;;;;;;5087499;28;19912;-40
2023/05/22 19:56:02;;;;;;;;;;;;;;;;;;5081052;28;19955;-40
2023/05/22 19:58:28;;;;;;;;;;;;;;;;;;5067319;28;19919;-40
2023/05/22 20:00:54;;;;;;;;;;;;;;;;;;5084996;28;20342;-40
2023/05/22 20:03:21;;;;;;;;;;;;;;;;;;5065309;28;19916;-40
2023/05/22 20:05:47;;;;;;;;;;;;;;;;;;5083342;28;19965;-40
2023/05/22 20:08:13;;;;;;;;;;;;;;;;;;5086197;28;19916;-40
2023/05/22 20:10:40;;;;;;;;;;;;;;;;;;5068459;28;19916;-41
2023/05/22 20:13:06;;;;;;;;;;;;;;;;;;5085848;28;20358;-40
2023/05/22 20:15:33;;;;;;;;;;;;;;;;;;5085621;28;19951;-42
2023/05/22 20:18:01;;;;;;;;;;;;;;;;;;5067988;28;19955;-40
2023/05/22 20:20:27;;;;;;;;;;;;;;;;;;5068087;28;19913;-40
2023/05/22 20:22:53;;;;;;;;;;;;;;;;;;5069112;28;19970;-40
2023/05/22 20:25:20;;;;;;;;;;;;;;;;;;5086261;28;19919;-40
2023/05/22 20:27:46;;;;;;;;;;;;;;;;;;5067468;28;19919;-41
2023/05/22 20:30:12;;;;;;;;;;;;;;;;;;5086443;28;19920;-40
2023/05/22 20:32:38;;;;;;;;;;;;;;;;;;5087090;28;19912;-40
2023/05/22 20:35:04;;;;;;;;;;;;;;;;;;5068758;28;19912;-41
2023/05/22 20:37:33;;;;;;;;;;;;;;;;;;5085336;28;19954;-40
2023/05/22 20:40:08;;;;;;;;;;;;;;;;;;5086186;28;19912;-40
2023/05/22 20:42:35;;;;;;;;;;;;;;;;;;5078018;28;19912;-40
2023/05/22 20:45:01;;;;;;;;;;;;;;;;;;5067032;28;19912;-40
2023/05/22 20:47:27;;;;;;;;;;;;;;;;;;5079531;28;19912;-40
2023/05/22 20:49:54;;;;;;;;;;;;;;;;;;5086681;28;19944;-40
2023/05/22 20:52:19;;;;;;;;;;;;;;;;;;5086600;28;19961;-40
2023/05/22 20:54:45;;;;;;;;;;;;;;;;;;5086532;28;19916;-40
2023/05/22 20:57:11;;;;;;;;;;;;;;;;;;5087251;28;19912;-40
2023/05/22 20:59:37;;;;;;;;;;;;;;;;;;5074019;28;19931;-40
2023/05/22 21:02:03;;;;;;;;;;;;;;;;;;5066523;28;19908;-40
2023/05/22 21:04:29;;;;;;;;;;;;;;;;;;5066113;28;20001;-40
2023/05/22 21:06:55;;;;;;;;;;;;;;;;;;5066431;28;20675;-40
2023/05/22 21:09:21;;;;;;;;;;;;;;;;;;5066101;28;19916;-40
2023/05/22 21:11:47;;;;;;;;;;;;;;;;;;5066360;28;19997;-40
2023/05/22 21:14:13;;;;;;;;;;;;;;;;;;5065966;28;19959;-40
2023/05/22 21:16:39;;;;;;;;;;;;;;;;;;5067192;28;19948;-40
2023/05/22 21:19:05;;;;;;;;;;;;;;;;;;5047935;28;20029;-40
2023/05/22 21:21:32;;;;;;;;;;;;;;;;;;5081154;28;19912;-40
2023/05/22 21:23:58;;;;;;;;;;;;;;;;;;5086092;28;19920;-40
2023/05/22 21:26:24;;;;;;;;;;;;;;;;;;5086860;28;20476;-40
2023/05/22 21:28:50;;;;;;;;;;;;;;;;;;5090709;28;19930;-40
2023/05/22 21:31:16;;;;;;;;;;;;;;;;;;5089723;28;20369;-40
2023/05/22 21:33:41;;;;;;;;;;;;;;;;;;5090629;28;19947;-40
2023/05/22 21:36:07;;;;;;;;;;;;;;;;;;5090725;28;19912;-40
2023/05/22 21:38:33;;;;;;;;;;;;;;;;;;5089024;28;19912;-40
2023/05/22 21:40:59;;;;;;;;;;;;;;;;;;5089212;28;19916;-40
2023/05/22 21:43:25;;;;;;;;;;;;;;;;;;5090147;28;19919;-40
2023/05/22 21:45:51;;;;;;;;;;;;;;;;;;5086708;28;20290;-40